This is the latest recevied weather packets stored in our database for station/object Kisslegg. If no packets are shown the sender has not sent any weather packets the latest 1 day(s).
| Time | Temp. | Humidity | Pressure | Rain* | Wind** | Luminosity | Snow |
|---|---|---|---|---|---|---|---|
| 1836273905 | 15.56° C | 86% | 1021 hPa | 0 mm | 0 m/s | - | - |
| 1778022129 | 9.44° C | 95% | 1008.6 hPa | 0 mm | 0 m/s | - | - |
| 1778020330 | 10° C | 95% | 1008.9 hPa | 0 mm | 0 m/s | - | - |
| 1778018529 | 10° C | 94% | 1008.8 hPa | 0 mm | 0 m/s | - | - |
| 1778016731 | 10° C | 94% | 1008.8 hPa | 0.76 mm | 0 m/s | - | - |
| 1778014935 | 10.56° C | 94% | 1008.9 hPa | 0.76 mm | 0 m/s | - | - |
| 1778013129 | 10.56° C | 93% | 1008.9 hPa | 0.76 mm | 0 m/s | - | - |
| 1778011330 | 10.56° C | 92% | 1009.2 hPa | 0.76 mm | 0 m/s | - | - |
| 1778009529 | 11.11° C | 90% | 1008.9 hPa | 0.76 mm | 0 m/s | - | - |
| 1778007735 | 12.22° C | 84% | 1008.2 hPa | 0 mm | 0 m/s | - | - |
| 1778005932 | 13.89° C | 84% | 1007.8 hPa | 0 mm | 0 m/s | - | - |
| 1778004131 | 14.44° C | 87% | 1007.1 hPa | 0 mm | 0 m/s | - | - |
| 1778002330 | 14.44° C | 88% | 1007 hPa | 0 mm | 0 m/s | - | - |
| 1778000530 | 15° C | 86% | 1006.7 hPa | 0 mm | 0 m/s | - | - |
| 1777998731 | 15° C | 83% | 1006.5 hPa | 0 mm | 0 m/s | - | - |
| 1777995130 | 15.56° C | 79% | 1006.5 hPa | 0 mm | 0 m/s | - | - |
| 1777993336 | 16.67° C | 72% | 1006.6 hPa | 0 mm | 0 m/s | - | - |
| 1777991532 | 16.67° C | 67% | 1006.2 hPa | 0 mm | 0 m/s | - | - |
| 1777989730 | 16.67° C | 69% | 1006.3 hPa | 0 mm | 0 m/s | - | - |
| 1777987930 | 16.67° C | 69% | 1006.5 hPa | 0 mm | 0 m/s | - | - |
| 1777986130 | 16.67° C | 74% | 1006.6 hPa | 0 mm | 0 m/s | - | - |
| 1777984330 | 14.44° C | 81% | 1006.8 hPa | 0 mm | 0 m/s | - | - |
| 1777982530 | 13.89° C | 83% | 1006.8 hPa | 0 mm | 0 m/s | - | - |
| 1777980730 | 13.33° C | 84% | 1007.2 hPa | 0 mm | 0 m/s | - | - |
| 1777978931 | 13.89° C | 81% | 1007.4 hPa | 0 mm | 0 m/s | - | - |
* Rain since midnight (hover to see other rain measurements)
** Current wind speed in m/s (hover to see current wind gust speed)